createdAt,value
2018-07-07T00:01:25.231Z,4.33
2018-07-07T00:03:36.190Z,4.40
2018-07-07T00:05:45.425Z,4.50
2018-07-07T00:07:55.068Z,3.80
2018-07-07T00:10:04.577Z,4.90
2018-07-07T00:12:13.851Z,4.40
2018-07-07T00:14:23.562Z,4.07
2018-07-07T00:16:33.060Z,3.70
2018-07-07T00:18:42.911Z,4.43
2018-07-07T00:20:52.529Z,4.47
2018-07-07T00:23:02.335Z,4.47
2018-07-07T00:25:19.692Z,3.90
2018-07-07T00:27:31.601Z,4.36
2018-07-07T00:29:48.421Z,4.33
2018-07-07T00:31:59.546Z,4.93
2018-07-07T00:34:09.671Z,4.00
2018-07-07T00:36:19.354Z,4.63
2018-07-07T00:38:29.886Z,5.90
2018-07-07T00:40:39.176Z,8.87
2018-07-07T00:42:49.435Z,6.10
2018-07-07T00:44:58.688Z,7.27
2018-07-07T00:47:08.111Z,6.77
2018-07-07T00:49:17.339Z,6.20
2018-07-07T00:51:26.371Z,6.80
2018-07-07T00:53:34.033Z,7.20
2018-07-07T00:55:43.670Z,6.63
2018-07-07T00:57:53.955Z,6.87
2018-07-07T01:00:06.267Z,6.77
2018-07-07T01:02:24.190Z,6.73
2018-07-07T01:04:34.140Z,6.93
2018-07-07T01:06:44.727Z,6.30
2018-07-07T01:08:54.238Z,6.90
2018-07-07T01:11:05.246Z,6.50
2018-07-07T01:13:19.836Z,6.57
2018-07-07T01:15:32.642Z,7.03
2018-07-07T01:17:42.612Z,6.67
2018-07-07T01:19:52.278Z,7.60
2018-07-07T01:22:03.728Z,6.80
2018-07-07T01:24:13.321Z,7.53
2018-07-07T01:26:22.694Z,6.20
2018-07-07T01:28:32.299Z,5.33
2018-07-07T01:30:43.679Z,6.10
2018-07-07T01:32:55.533Z,5.77
2018-07-07T01:35:07.440Z,5.60
2018-07-07T01:37:17.238Z,6.80
2018-07-07T01:39:28.276Z,5.70
2018-07-07T01:41:45.873Z,5.43
2018-07-07T01:43:55.265Z,5.57
2018-07-07T01:46:04.767Z,5.23
2018-07-07T01:48:15.167Z,4.90
2018-07-07T01:50:24.727Z,5.13
2018-07-07T01:52:34.485Z,5.20
2018-07-07T01:54:43.708Z,5.20
2018-07-07T01:56:53.047Z,5.43
2018-07-07T01:59:03.513Z,5.67
2018-07-07T02:01:12.992Z,5.23
2018-07-07T02:03:22.346Z,6.07
2018-07-07T02:05:32.352Z,4.10
2018-07-07T02:07:42.207Z,5.17
2018-07-07T02:09:50.331Z,5.60
2018-07-07T02:11:59.771Z,5.10
2018-07-07T02:14:08.927Z,4.93
2018-07-07T02:16:20.253Z,5.33
2018-07-07T02:18:29.586Z,4.70
2018-07-07T02:20:38.832Z,4.17
2018-07-07T02:22:48.411Z,5.00
2018-07-07T02:24:57.819Z,4.07
2018-07-07T02:27:07.042Z,4.50
2018-07-07T02:29:16.255Z,3.83
2018-07-07T02:31:25.450Z,3.13
2018-07-07T02:33:34.866Z,4.10
2018-07-07T02:35:44.138Z,3.40
2018-07-07T02:37:53.684Z,4.17
2018-07-07T02:40:03.022Z,3.70
2018-07-07T02:42:12.708Z,3.83
2018-07-07T02:44:22.531Z,4.40
2018-07-07T02:46:32.277Z,3.37
2018-07-07T02:48:43.249Z,3.60
2018-07-07T02:50:52.859Z,3.93
2018-07-07T02:53:02.209Z,2.77
2018-07-07T02:55:11.706Z,2.93
2018-07-07T02:57:21.107Z,3.40
2018-07-07T02:59:30.332Z,3.10
2018-07-07T03:01:39.634Z,3.10
2018-07-07T03:03:48.927Z,3.50
2018-07-07T03:05:56.608Z,3.10
2018-07-07T03:08:05.997Z,3.23
2018-07-07T03:10:15.263Z,3.10
2018-07-07T03:12:24.366Z,3.83
2018-07-07T03:14:33.658Z,3.60
2018-07-07T03:16:43.167Z,2.87
2018-07-07T03:18:52.584Z,3.33
2018-07-07T03:21:02.577Z,2.77
2018-07-07T03:23:12.150Z,3.17
2018-07-07T03:25:21.674Z,2.60
2018-07-07T03:27:31.153Z,3.00
2018-07-07T03:29:40.646Z,2.97
2018-07-07T03:31:50.409Z,2.97
2018-07-07T03:33:59.751Z,3.03
2018-07-07T03:36:09.246Z,2.83
2018-07-07T03:38:18.682Z,3.37
2018-07-07T03:40:28.073Z,2.80
2018-07-07T03:42:37.205Z,2.57
2018-07-07T03:44:44.506Z,2.57
2018-07-07T03:46:54.112Z,2.87
2018-07-07T03:49:03.853Z,2.40
2018-07-07T03:51:13.675Z,2.80
2018-07-07T03:53:26.212Z,2.50
2018-07-07T03:55:35.910Z,2.67
2018-07-07T03:57:45.642Z,2.60
2018-07-07T03:59:54.977Z,2.97
2018-07-07T04:02:04.818Z,2.40
2018-07-07T04:04:16.457Z,2.87
2018-07-07T04:06:25.703Z,2.17
2018-07-07T04:08:35.274Z,2.60
2018-07-07T04:10:43.097Z,2.57
2018-07-07T04:12:52.686Z,2.87
2018-07-07T04:15:02.776Z,1.83
2018-07-07T04:17:12.675Z,2.10
2018-07-07T04:19:22.435Z,2.50
2018-07-07T04:21:32.189Z,2.37
2018-07-07T04:23:42.055Z,2.30
2018-07-07T04:25:51.605Z,2.80
2018-07-07T04:28:00.897Z,3.00
2018-07-07T04:30:10.344Z,2.73
2018-07-07T04:32:19.673Z,3.03
2018-07-07T04:34:29.213Z,2.27
2018-07-07T04:36:38.829Z,2.60
2018-07-07T04:38:48.788Z,2.50
2018-07-07T04:40:58.900Z,2.83
2018-07-07T04:43:08.734Z,2.00
2018-07-07T04:45:19.169Z,2.93
2018-07-07T04:47:29.535Z,2.70
2018-07-07T04:49:39.202Z,3.10
2018-07-07T04:51:50.776Z,2.50
2018-07-07T04:54:00.709Z,2.43
2018-07-07T04:56:10.221Z,2.83
2018-07-07T04:58:19.389Z,2.57
2018-07-07T05:00:29.120Z,2.57
2018-07-07T05:02:38.878Z,2.70
2018-07-07T05:04:47.912Z,2.80
2018-07-07T05:06:57.150Z,2.80
2018-07-07T05:09:06.270Z,2.67
2018-07-07T05:11:14.361Z,2.60
2018-07-07T05:13:23.749Z,2.47
2018-07-07T05:15:33.729Z,2.43
2018-07-07T05:17:44.362Z,2.80
2018-07-07T05:19:54.364Z,2.60
2018-07-07T05:22:04.166Z,2.33
2018-07-07T05:24:15.189Z,2.53
2018-07-07T05:26:25.167Z,2.80
2018-07-07T05:28:33.492Z,2.77
2018-07-07T05:30:43.510Z,2.77
2018-07-07T05:32:54.466Z,2.50
2018-07-07T05:35:03.950Z,2.23
2018-07-07T05:37:14.296Z,2.70
2018-07-07T05:39:24.220Z,2.30
2018-07-07T05:41:33.764Z,2.80
2018-07-07T05:43:41.664Z,2.47
2018-07-07T05:45:51.157Z,2.70
2018-07-07T05:48:00.996Z,2.67
2018-07-07T05:50:11.278Z,2.77
2018-07-07T05:52:21.518Z,2.43
2018-07-07T05:54:31.389Z,2.70
2018-07-07T05:56:41.628Z,2.80
2018-07-07T05:58:51.739Z,2.77
2018-07-07T06:01:01.338Z,2.70
2018-07-07T06:03:11.343Z,2.60
2018-07-07T06:05:21.127Z,2.73
2018-07-07T06:07:30.353Z,2.90
2018-07-07T06:09:41.024Z,2.37
2018-07-07T06:11:50.662Z,2.95
2018-07-07T06:14:00.716Z,3.30
2018-07-07T06:16:11.981Z,2.57
2018-07-07T06:18:21.225Z,2.97
2018-07-07T06:20:31.913Z,3.13
2018-07-07T06:22:41.418Z,3.00
2018-07-07T06:24:50.824Z,2.70
2018-07-07T06:27:01.211Z,2.80
2018-07-07T06:29:10.549Z,2.50
2018-07-07T06:31:20.628Z,3.10
2018-07-07T06:33:30.629Z,2.50
2018-07-07T06:35:40.209Z,2.87
2018-07-07T06:37:47.775Z,2.63
2018-07-07T06:39:58.042Z,2.47
2018-07-07T06:42:07.762Z,3.00
2018-07-07T06:44:17.583Z,2.43
2018-07-07T06:46:26.843Z,2.87
2018-07-07T06:48:36.130Z,2.93
2018-07-07T06:50:45.687Z,2.80
2018-07-07T06:52:54.931Z,2.93
2018-07-07T06:55:04.689Z,2.87
2018-07-07T06:57:14.162Z,3.00
2018-07-07T06:59:23.815Z,2.80
2018-07-07T07:01:33.293Z,2.60
2018-07-07T07:03:44.458Z,2.90
2018-07-07T07:05:54.075Z,3.20
2018-07-07T07:08:03.440Z,3.00
2018-07-07T07:10:12.938Z,2.60
2018-07-07T07:12:22.014Z,3.20
2018-07-07T07:14:31.747Z,2.70
2018-07-07T07:16:41.706Z,2.63
2018-07-07T07:18:50.778Z,2.57
2018-07-07T07:20:59.807Z,2.30
2018-07-07T07:23:09.468Z,3.10
2018-07-07T07:25:18.940Z,2.97
2018-07-07T07:27:28.577Z,3.20
2018-07-07T07:29:39.032Z,3.07
2018-07-07T07:31:48.608Z,2.70
2018-07-07T07:33:58.724Z,2.70
2018-07-07T07:36:13.131Z,2.70
2018-07-07T07:38:22.603Z,2.50
2018-07-07T07:40:32.362Z,2.47
2018-07-07T07:42:43.232Z,2.47
2018-07-07T07:44:52.807Z,2.57
2018-07-07T07:47:02.070Z,2.53
2018-07-07T07:49:12.160Z,2.60
2018-07-07T07:51:21.788Z,2.43
2018-07-07T07:53:29.608Z,2.70
2018-07-07T07:55:38.931Z,2.43
2018-07-07T07:57:48.604Z,2.87
2018-07-07T07:59:59.978Z,2.30
2018-07-07T08:02:09.107Z,3.13
2018-07-07T08:04:18.576Z,2.80
2018-07-07T08:06:27.643Z,2.70
2018-07-07T08:08:36.907Z,2.67
2018-07-07T08:10:46.320Z,2.40
2018-07-07T08:12:54.074Z,2.70
2018-07-07T08:15:03.975Z,2.80
2018-07-07T08:17:13.545Z,2.60
2018-07-07T08:19:22.941Z,2.90
2018-07-07T08:21:32.700Z,2.87
2018-07-07T08:23:42.403Z,2.63
2018-07-07T08:25:52.303Z,3.30
2018-07-07T08:28:01.945Z,2.43
2018-07-07T08:30:11.651Z,2.50
2018-07-07T08:32:22.014Z,1.80
2018-07-07T08:34:31.127Z,2.47
2018-07-07T08:36:40.841Z,3.10
2018-07-07T08:38:50.223Z,2.30
2018-07-07T08:41:00.571Z,2.70
2018-07-07T08:43:10.128Z,1.93
2018-07-07T08:45:19.565Z,2.30
2018-07-07T08:47:29.101Z,2.40
2018-07-07T08:49:39.083Z,2.20
2018-07-07T08:51:48.405Z,2.43
2018-07-07T08:53:58.159Z,2.33
2018-07-07T08:56:07.442Z,2.87
2018-07-07T08:58:16.660Z,2.23
2018-07-07T09:00:26.295Z,2.20
2018-07-07T09:02:36.383Z,2.47
2018-07-07T09:04:45.572Z,2.60
2018-07-07T09:06:54.950Z,2.37
2018-07-07T09:09:04.530Z,2.23
2018-07-07T09:11:14.456Z,2.40
2018-07-07T09:13:24.215Z,1.77
2018-07-07T09:15:35.089Z,2.40
2018-07-07T09:17:44.874Z,2.40
2018-07-07T09:19:54.724Z,2.37
2018-07-07T09:22:04.109Z,3.10
2018-07-07T09:24:13.914Z,2.67
2018-07-07T09:26:23.443Z,2.80
2018-07-07T09:28:33.911Z,2.47
2018-07-07T09:30:45.303Z,2.43
2018-07-07T09:32:55.370Z,2.47
2018-07-07T09:35:05.561Z,2.70
2018-07-07T09:37:15.397Z,2.43
2018-07-07T09:39:25.724Z,2.50
2018-07-07T09:41:35.127Z,2.33
2018-07-07T09:43:44.358Z,2.47
2018-07-07T09:45:53.706Z,2.13
2018-07-07T09:48:03.131Z,2.33
2018-07-07T09:50:12.710Z,2.30
2018-07-07T09:52:22.441Z,2.13
2018-07-07T09:54:32.101Z,2.03
2018-07-07T09:56:42.000Z,2.00
2018-07-07T09:58:51.479Z,1.97
2018-07-07T10:01:01.126Z,2.17
2018-07-07T10:03:10.698Z,2.13
2018-07-07T10:05:20.301Z,1.97
2018-07-07T10:07:29.638Z,2.13
2018-07-07T10:09:39.068Z,1.53
2018-07-07T10:11:49.122Z,2.13
2018-07-07T10:13:58.379Z,1.60
2018-07-07T10:16:07.889Z,1.90
2018-07-07T10:18:17.230Z,1.80
2018-07-07T10:20:24.481Z,1.63
2018-07-07T10:22:33.989Z,1.60
2018-07-07T10:24:43.395Z,1.83
2018-07-07T10:26:52.761Z,2.50
2018-07-07T10:29:02.273Z,1.90
2018-07-07T10:31:11.851Z,2.00
2018-07-07T10:33:21.473Z,1.87
2018-07-07T10:35:30.996Z,1.60
2018-07-07T10:37:40.046Z,1.63
2018-07-07T10:39:49.461Z,1.47
2018-07-07T10:41:58.284Z,1.77
2018-07-07T10:44:07.802Z,1.73
2018-07-07T10:46:17.015Z,1.40
2018-07-07T10:48:26.583Z,1.67
2018-07-07T10:50:35.793Z,1.70
2018-07-07T10:52:44.893Z,1.30
2018-07-07T10:54:54.165Z,1.70
2018-07-07T10:57:03.715Z,1.30
2018-07-07T10:59:13.948Z,2.20
2018-07-07T11:01:23.493Z,1.53
2018-07-07T11:03:31.321Z,1.50
2018-07-07T11:05:40.334Z,1.50
2018-07-07T11:07:50.023Z,1.67
2018-07-07T11:09:59.179Z,1.50
2018-07-07T11:12:08.174Z,1.70
2018-07-07T11:14:17.578Z,1.37
2018-07-07T11:16:27.408Z,1.20
2018-07-07T11:18:36.694Z,1.07
2018-07-07T11:20:46.114Z,1.17
2018-07-07T11:22:56.006Z,1.50
2018-07-07T11:25:05.645Z,1.40
2018-07-07T11:27:16.784Z,1.50
2018-07-07T11:29:26.484Z,1.30
2018-07-07T11:31:34.646Z,1.33
2018-07-07T11:33:44.656Z,1.50
2018-07-07T11:35:54.168Z,1.50
2018-07-07T11:38:03.405Z,1.23
2018-07-07T11:40:13.237Z,1.13
2018-07-07T11:42:22.757Z,1.20
2018-07-07T11:44:33.364Z,1.20
2018-07-07T11:46:43.055Z,1.20
2018-07-07T11:48:52.661Z,1.33
2018-07-07T11:51:02.547Z,1.80
2018-07-07T11:53:12.131Z,1.10
2018-07-07T11:55:21.816Z,1.90
2018-07-07T11:57:32.129Z,1.80
2018-07-07T11:59:41.836Z,2.50
2018-07-07T12:01:51.335Z,2.80
2018-07-07T12:04:00.719Z,2.90
2018-07-07T12:06:10.093Z,3.43
2018-07-07T12:08:19.787Z,2.83
2018-07-07T12:10:29.428Z,2.73
2018-07-07T12:12:38.288Z,3.37
2018-07-07T12:14:49.453Z,3.60
2018-07-07T12:16:58.718Z,3.33
2018-07-07T12:19:07.738Z,3.70
2018-07-07T12:21:16.975Z,3.60
2018-07-07T12:23:26.110Z,5.17
2018-07-07T12:25:35.592Z,5.03
2018-07-07T12:27:44.916Z,4.40
2018-07-07T12:29:54.008Z,4.83
2018-07-07T12:32:03.232Z,4.80
2018-07-07T12:34:12.670Z,6.70
2018-07-07T12:36:20.220Z,5.70
2018-07-07T12:38:29.354Z,19.40
2018-07-07T12:40:38.777Z,107.40
2018-07-07T12:42:47.258Z,108.87
2018-07-07T12:45:00.705Z,87.97
2018-07-07T12:47:09.731Z,69.70
2018-07-07T12:49:19.046Z,62.90
2018-07-07T12:51:28.440Z,53.80
2018-07-07T12:53:37.374Z,54.83
2018-07-07T12:55:46.314Z,53.20
2018-07-07T12:57:55.499Z,50.40
2018-07-07T13:00:05.424Z,48.03
2018-07-07T13:02:16.176Z,46.93
2018-07-07T13:04:26.049Z,46.23
2018-07-07T13:06:35.299Z,42.57
2018-07-07T13:08:45.057Z,41.63
2018-07-07T13:10:54.354Z,39.50
2018-07-07T13:13:04.054Z,39.30
2018-07-07T13:15:17.994Z,39.60
2018-07-07T13:17:27.022Z,35.23
2018-07-07T13:19:35.917Z,33.50
2018-07-07T13:21:45.362Z,34.40
2018-07-07T13:23:54.621Z,31.27
2018-07-07T13:26:04.939Z,31.00
2018-07-07T13:28:14.401Z,28.97
2018-07-07T13:30:23.506Z,28.30
2018-07-07T13:32:32.824Z,28.17
2018-07-07T13:34:42.641Z,25.53
2018-07-07T13:36:51.903Z,25.40
2018-07-07T13:39:00.853Z,25.07
2018-07-07T13:41:11.808Z,24.00
2018-07-07T13:43:20.887Z,21.97
2018-07-07T13:45:32.922Z,24.33
2018-07-07T13:47:42.775Z,21.68
2018-07-07T13:50:00.187Z,21.30
2018-07-07T13:52:09.546Z,22.00
2018-07-07T13:54:19.771Z,20.53
2018-07-07T13:56:29.556Z,18.90
2018-07-07T13:58:39.239Z,20.40
2018-07-07T14:00:48.119Z,20.87
2018-07-07T14:02:59.308Z,18.70
2018-07-07T14:05:18.981Z,19.27
2018-07-07T14:07:28.425Z,18.17
2018-07-07T14:09:38.793Z,18.00
2018-07-07T15:20:11.638Z,18.46
2018-07-07T15:38:38.697Z,8.50
2018-07-07T15:40:49.087Z,9.07
2018-07-07T15:42:58.314Z,9.63
2018-07-07T15:45:07.732Z,9.23
2018-07-07T15:47:16.870Z,7.67
2018-07-07T15:49:25.994Z,8.83
2018-07-07T15:51:36.078Z,9.80
2018-07-07T15:53:48.773Z,11.37
2018-07-07T15:56:03.401Z,10.87
2018-07-07T15:58:12.987Z,10.40
2018-07-07T16:00:22.869Z,9.30
2018-07-07T16:02:32.340Z,10.40
2018-07-07T16:04:41.814Z,10.00
2018-07-07T16:06:52.966Z,10.10
2018-07-07T16:09:04.002Z,8.97
2018-07-07T16:11:14.876Z,9.43
2018-07-07T16:13:26.794Z,8.93
2018-07-07T16:15:37.472Z,9.03
2018-07-07T16:17:48.416Z,7.80
2018-07-07T16:19:59.651Z,7.10
2018-07-07T16:22:09.930Z,7.60
2018-07-07T16:24:19.550Z,7.30
2018-07-07T16:26:28.932Z,8.60
2018-07-07T16:28:38.627Z,8.20
2018-07-07T16:30:46.248Z,7.30
2018-07-07T16:32:55.564Z,7.97
2018-07-07T16:35:04.757Z,7.13
2018-07-07T16:37:12.346Z,7.20
2018-07-07T16:39:21.760Z,7.70
2018-07-07T16:41:32.504Z,6.93
2018-07-07T16:43:41.854Z,7.77
2018-07-07T16:45:51.292Z,7.30
2018-07-07T16:48:00.280Z,7.47
2018-07-07T16:50:09.724Z,7.70
2018-07-07T16:52:19.127Z,6.30
2018-07-07T16:54:28.340Z,7.37
2018-07-07T16:56:37.445Z,7.93
2018-07-07T16:58:46.591Z,6.37
2018-07-07T17:00:54.287Z,6.53
2018-07-07T17:03:04.135Z,7.03
2018-07-07T17:05:11.945Z,7.43
2018-07-07T17:07:21.289Z,6.57
2018-07-07T17:09:34.822Z,6.80
2018-07-07T17:11:44.083Z,6.03
2018-07-07T17:13:53.807Z,7.10
2018-07-07T17:16:04.808Z,6.20
2018-07-07T17:18:14.298Z,6.47
2018-07-07T17:20:23.894Z,6.50
2018-07-07T17:22:33.134Z,6.40
2018-07-07T17:24:42.587Z,7.33
2018-07-07T17:26:52.460Z,6.70
2018-07-07T17:29:05.178Z,7.30
2018-07-07T17:31:15.838Z,6.07
2018-07-07T17:33:25.842Z,6.63
2018-07-07T17:35:36.889Z,6.63
2018-07-07T17:37:45.864Z,5.53
2018-07-07T17:39:56.061Z,6.10
2018-07-07T17:42:10.664Z,6.70
2018-07-07T17:44:20.134Z,6.10
2018-07-07T17:46:30.324Z,6.27
2018-07-07T17:48:39.592Z,5.30
2018-07-07T17:50:48.876Z,6.30
2018-07-07T17:53:00.687Z,5.47
2018-07-07T17:55:10.836Z,6.10
2018-07-07T17:57:21.200Z,5.40
2018-07-07T17:59:31.471Z,6.00
2018-07-07T18:01:40.854Z,5.33
2018-07-07T18:03:50.286Z,5.03
2018-07-07T18:05:59.420Z,5.60
2018-07-07T18:08:08.648Z,6.62
2018-07-07T18:10:21.133Z,5.43
2018-07-07T18:12:30.185Z,5.23
2018-07-07T18:14:40.351Z,6.60
2018-07-07T18:16:49.329Z,5.00
2018-07-07T18:18:59.016Z,5.90
2018-07-07T18:21:09.326Z,5.53
2018-07-07T18:23:19.884Z,5.80
2018-07-07T18:25:30.707Z,6.03
2018-07-07T18:27:40.791Z,5.62
2018-07-07T18:29:49.979Z,6.00
2018-07-07T18:31:59.644Z,5.40
2018-07-07T18:34:09.472Z,6.73
2018-07-07T18:36:17.301Z,5.70
2018-07-07T18:38:26.498Z,7.00
2018-07-07T18:40:36.042Z,5.27
2018-07-07T18:42:45.886Z,6.00
2018-07-07T18:44:56.064Z,5.50
2018-07-07T18:47:05.286Z,5.10
2018-07-07T18:49:15.701Z,5.57
2018-07-07T18:51:25.333Z,5.33
2018-07-07T18:53:34.668Z,6.10
2018-07-07T18:55:48.893Z,5.30
2018-07-07T18:57:59.430Z,5.40
2018-07-07T19:00:07.226Z,6.33
2018-07-07T19:02:14.893Z,5.60
2018-07-07T19:04:24.175Z,7.20
2018-07-07T19:06:33.995Z,6.10
2018-07-07T19:08:43.669Z,6.37
2018-07-07T19:10:53.774Z,6.00
2018-07-07T19:15:22.907Z,6.60
2018-07-07T19:17:34.177Z,6.13
2018-07-07T19:19:45.895Z,6.00
2018-07-07T19:22:07.848Z,5.43
2018-07-07T19:24:26.233Z,5.44
2018-07-07T19:26:39.638Z,5.87
2018-07-07T19:28:47.328Z,5.83
2018-07-07T19:30:58.491Z,5.20
2018-07-07T19:33:12.066Z,6.10
2018-07-07T19:36:23.565Z,6.73
2018-07-07T19:38:34.258Z,5.80
2018-07-07T19:40:43.626Z,5.60
2018-07-07T19:42:54.309Z,5.87
2018-07-07T19:45:04.345Z,5.63
2018-07-07T19:47:14.196Z,5.50
2018-07-07T19:49:23.964Z,5.80
2018-07-07T19:51:34.316Z,5.20
2018-07-07T19:53:43.643Z,5.63
2018-07-07T19:55:53.091Z,6.03
2018-07-07T19:58:02.562Z,5.90
2018-07-07T20:00:11.944Z,6.03
2018-07-07T20:02:21.577Z,6.40
2018-07-07T20:04:29.313Z,5.83
2018-07-07T20:06:38.809Z,5.80
2018-07-07T20:08:48.210Z,6.53
2018-07-07T20:10:56.963Z,6.33
2018-07-07T20:13:06.154Z,6.33
2018-07-07T20:15:17.217Z,6.47
2018-07-07T20:18:36.537Z,5.80
2018-07-07T20:20:53.494Z,5.77
2018-07-07T20:23:06.128Z,5.80
2018-07-07T20:25:19.089Z,5.70
2018-07-07T20:27:32.618Z,5.93
2018-07-07T20:29:41.626Z,5.90
2018-07-07T20:31:54.400Z,6.90
2018-07-07T20:34:03.648Z,6.20
2018-07-07T20:36:13.897Z,6.20
2018-07-07T20:38:23.248Z,6.27
2018-07-07T20:40:34.066Z,6.30
2018-07-07T20:42:43.831Z,6.53
2018-07-07T20:44:53.190Z,5.90
2018-07-07T20:47:06.376Z,6.60
2018-07-07T20:49:18.009Z,5.97
2018-07-07T20:51:27.222Z,7.07
2018-07-07T20:53:37.029Z,6.20
2018-07-07T20:55:46.793Z,7.00
2018-07-07T20:57:56.160Z,6.70
2018-07-07T21:00:07.264Z,6.87
2018-07-07T21:02:16.300Z,7.30
2018-07-07T21:04:25.535Z,6.80
2018-07-07T21:06:34.334Z,8.60
2018-07-07T21:08:44.124Z,14.53
2018-07-07T21:10:53.560Z,17.03
2018-07-07T21:13:03.259Z,18.47
2018-07-07T21:15:12.848Z,19.17
2018-07-07T21:17:22.466Z,17.93
2018-07-07T21:19:32.340Z,18.70
2018-07-07T21:21:41.853Z,17.50
2018-07-07T21:23:53.104Z,14.40
2018-07-07T21:26:02.279Z,14.53
2018-07-07T21:28:11.646Z,15.03
2018-07-07T21:30:20.653Z,13.10
2018-07-07T21:32:30.038Z,12.83
2018-07-07T21:34:39.498Z,10.53
2018-07-07T21:36:49.047Z,11.80
2018-07-07T21:38:58.516Z,11.13
2018-07-07T21:41:08.018Z,9.90
2018-07-07T21:43:17.227Z,10.37
2018-07-07T21:45:26.360Z,9.43
2018-07-07T21:47:33.846Z,9.80
2018-07-07T21:49:43.236Z,9.60
2018-07-07T21:51:52.595Z,10.03
2018-07-07T21:54:03.450Z,10.17
2018-07-07T21:56:12.656Z,10.03
2018-07-07T21:58:30.581Z,9.30
2018-07-07T22:00:50.205Z,10.40
2018-07-07T22:03:03.518Z,9.57
2018-07-07T22:05:17.075Z,8.87
2018-07-07T22:07:30.683Z,9.10
2018-07-07T22:09:40.366Z,9.67
2018-07-07T22:11:49.442Z,9.40
2018-07-07T22:13:59.256Z,8.73
2018-07-07T22:16:08.814Z,9.67
2018-07-07T22:18:18.500Z,9.00
2018-07-07T22:20:36.519Z,8.97
2018-07-07T22:22:45.959Z,9.30
2018-07-07T22:24:55.425Z,8.83
2018-07-07T22:27:08.294Z,9.43
2018-07-07T22:29:17.170Z,8.00
2018-07-07T22:31:26.055Z,8.90
2018-07-07T22:33:36.894Z,9.67
2018-07-07T22:35:50.114Z,9.30
2018-07-07T22:37:59.119Z,9.20
2018-07-07T22:40:08.452Z,9.67
2018-07-07T22:42:20.364Z,10.70
2018-07-07T22:44:29.755Z,9.13
2018-07-07T22:46:38.846Z,9.87
2018-07-07T22:48:47.717Z,8.57
2018-07-07T22:50:57.833Z,8.67
2018-07-07T22:53:06.958Z,10.33
2018-07-07T22:55:16.751Z,9.67
2018-07-07T23:43:07.793Z,10.10
2018-07-07T23:45:19.134Z,26.87
2018-07-07T23:47:28.867Z,25.67
2018-07-07T23:49:38.877Z,23.47
2018-07-07T23:51:48.543Z,24.50
2018-07-07T23:53:57.976Z,25.30
2018-07-07T23:56:07.091Z,26.90
2018-07-07T23:58:16.322Z,24.10
